createdAt,value
2024-03-15T00:00:19.841Z,100284.03
2024-03-15T00:00:43.845Z,100283.84
2024-03-15T00:01:05.610Z,100286.00
2024-03-15T00:01:27.393Z,100280.94
2024-03-15T00:01:49.213Z,100281.59
2024-03-15T00:02:11.836Z,100282.88
2024-03-15T00:02:35.253Z,100277.97
2024-03-15T00:02:57.161Z,100287.66
2024-03-15T00:03:19.032Z,100267.56
2024-03-15T00:03:40.942Z,100280.56
2024-03-15T00:04:02.762Z,100276.94
2024-03-15T00:04:25.548Z,100280.50
2024-03-15T00:04:47.357Z,100281.16
2024-03-15T00:05:10.708Z,100278.94
2024-03-15T00:05:32.971Z,100281.72
2024-03-15T00:05:55.751Z,100271.75
2024-03-15T00:06:18.410Z,100272.91
2024-03-15T00:06:40.337Z,100276.38
2024-03-15T00:07:02.679Z,100269.94
2024-03-15T00:07:25.396Z,100281.50
2024-03-15T00:07:47.438Z,100274.59
2024-03-15T00:08:10.298Z,100270.13
2024-03-15T00:08:33.835Z,100274.41
2024-03-15T00:08:56.249Z,100270.78
2024-03-15T00:09:18.033Z,100277.34
2024-03-15T00:09:39.852Z,100276.50
2024-03-15T00:10:02.691Z,100279.97
2024-03-15T00:10:24.995Z,100278.91
2024-03-15T00:10:48.257Z,100275.56
2024-03-15T00:11:10.702Z,100282.44
2024-03-15T00:11:33.640Z,100272.88
2024-03-15T00:11:56.234Z,100277.88
2024-03-15T00:12:18.028Z,100275.13
2024-03-15T00:12:39.928Z,100274.72
2024-03-15T00:13:04.366Z,100270.97
2024-03-15T00:13:27.537Z,100271.56
2024-03-15T00:13:49.396Z,100270.00
2024-03-15T00:14:11.161Z,100274.31
2024-03-15T00:14:33.780Z,100269.75
2024-03-15T00:14:56.403Z,100278.47
2024-03-15T00:15:19.937Z,100270.34
2024-03-15T00:15:41.881Z,100273.78
2024-03-15T00:16:05.182Z,100279.22
2024-03-15T00:16:29.789Z,100275.28
2024-03-15T00:16:52.215Z,100276.91
2024-03-15T00:17:14.046Z,100277.69
2024-03-15T00:17:37.269Z,100277.50
2024-03-15T00:17:59.570Z,100275.78
2024-03-15T00:18:21.450Z,100277.50
2024-03-15T00:18:43.319Z,100274.56
2024-03-15T00:19:05.681Z,100277.50
2024-03-15T00:19:27.482Z,100282.09
2024-03-15T00:19:50.249Z,100274.13
2024-03-15T00:20:12.590Z,100274.06
2024-03-15T00:20:34.472Z,100272.31
2024-03-15T00:20:56.268Z,100281.13
2024-03-15T00:21:18.460Z,100274.25
2024-03-15T00:21:40.370Z,100271.63
2024-03-15T00:22:03.271Z,100275.28
2024-03-15T00:22:26.095Z,100279.56
2024-03-15T00:22:48.291Z,100280.31
2024-03-15T00:23:10.051Z,100270.47
2024-03-15T00:23:31.965Z,100278.69
2024-03-15T00:23:53.756Z,100278.28
2024-03-15T00:24:15.640Z,100273.53
2024-03-15T00:24:38.642Z,100282.63
2024-03-15T00:25:00.504Z,100280.97
2024-03-15T00:25:22.682Z,100276.91
2024-03-15T00:25:44.584Z,100250.59
2024-03-15T00:26:06.380Z,100277.50
2024-03-15T00:26:31.345Z,100263.16
2024-03-15T00:26:55.382Z,100275.94
2024-03-15T00:27:17.147Z,100274.84
2024-03-15T00:27:39.396Z,100265.75
2024-03-15T00:28:03.113Z,100273.50
2024-03-15T00:28:24.889Z,100277.56
2024-03-15T00:28:47.649Z,100275.75
2024-03-15T00:29:09.421Z,100277.94
2024-03-15T00:29:31.245Z,100272.69
2024-03-15T00:29:53.118Z,100272.50
2024-03-15T00:30:15.008Z,100267.09
2024-03-15T00:30:36.949Z,100264.28
2024-03-15T00:31:01.318Z,100270.44
2024-03-15T00:31:23.112Z,100271.47
2024-03-15T00:31:44.917Z,100269.56
2024-03-15T00:32:08.039Z,100281.81
2024-03-15T00:32:30.016Z,100279.72
2024-03-15T00:32:52.695Z,100281.38
2024-03-15T00:33:15.680Z,100273.34
2024-03-15T00:33:39.439Z,100281.25
2024-03-15T00:34:01.316Z,100279.38
2024-03-15T00:34:23.290Z,100278.22
2024-03-15T00:34:45.042Z,100264.66
2024-03-15T00:35:08.073Z,100275.13
2024-03-15T00:35:29.886Z,100273.09
2024-03-15T00:35:51.664Z,100249.38
2024-03-15T00:36:15.109Z,100271.09
2024-03-15T00:36:37.021Z,100267.84
2024-03-15T00:36:58.922Z,100272.91
2024-03-15T00:37:21.806Z,100275.31
2024-03-15T00:37:44.980Z,100273.50
2024-03-15T00:38:06.786Z,100265.38
2024-03-15T00:38:29.318Z,100272.47
2024-03-15T00:38:53.525Z,100263.44
2024-03-15T00:39:15.923Z,100268.13
2024-03-15T00:39:38.753Z,100270.72
2024-03-15T00:40:00.626Z,100270.91
2024-03-15T00:40:22.459Z,100270.16
2024-03-15T00:40:44.259Z,100268.13
2024-03-15T00:41:06.342Z,100271.69
2024-03-15T00:41:28.241Z,100257.63
2024-03-15T00:41:50.994Z,100272.25
2024-03-15T00:42:14.970Z,100262.63
2024-03-15T00:42:37.207Z,100277.81
2024-03-15T00:42:59.943Z,100260.19
2024-03-15T00:43:22.181Z,100264.72
2024-03-15T00:43:43.949Z,100271.97
2024-03-15T00:44:06.105Z,100268.34
2024-03-15T00:44:28.887Z,100271.69
2024-03-15T00:44:50.644Z,100260.97
2024-03-15T00:45:12.535Z,100267.19
2024-03-15T00:45:34.621Z,100269.19
2024-03-15T00:45:57.537Z,100270.06
2024-03-15T00:46:19.379Z,100269.94
2024-03-15T00:46:42.135Z,100272.16
2024-03-15T00:47:04.574Z,100269.28
2024-03-15T00:47:26.396Z,100266.41
2024-03-15T00:47:48.214Z,100268.72
2024-03-15T00:48:10.747Z,100265.97
2024-03-15T00:48:32.706Z,100273.72
2024-03-15T00:48:54.614Z,100263.56
2024-03-15T00:49:17.462Z,100267.00
2024-03-15T00:49:39.983Z,100266.03
2024-03-15T00:50:01.878Z,100265.09
2024-03-15T00:50:24.090Z,100270.84
2024-03-15T00:50:45.877Z,100268.94
2024-03-15T00:51:09.056Z,100268.94
2024-03-15T00:51:31.875Z,100268.06
2024-03-15T00:51:53.923Z,100272.78
2024-03-15T00:52:15.818Z,100267.22
2024-03-15T00:52:38.740Z,100259.75
2024-03-15T00:53:01.149Z,100272.38
2024-03-15T00:53:23.931Z,100267.88
2024-03-15T00:53:45.704Z,100269.88
2024-03-15T00:54:07.580Z,100264.81
2024-03-15T00:54:29.437Z,100272.56
2024-03-15T00:54:51.267Z,100263.59
2024-03-15T00:55:14.580Z,100258.03
2024-03-15T00:55:36.389Z,100263.31
2024-03-15T00:55:58.165Z,100261.50
2024-03-15T00:56:19.979Z,100262.25
2024-03-15T00:56:41.793Z,100258.53
2024-03-15T00:57:06.327Z,100259.56
2024-03-15T00:57:28.278Z,100262.72
2024-03-15T00:57:50.163Z,100261.97
2024-03-15T00:58:12.101Z,100255.06
2024-03-15T00:58:34.876Z,100256.63
2024-03-15T00:58:56.652Z,100263.09
2024-03-15T00:59:18.510Z,100267.00
2024-03-15T00:59:40.383Z,100265.09
2024-03-15T01:00:04.328Z,100267.78
2024-03-15T01:00:26.273Z,100259.25
2024-03-15T01:00:49.204Z,100242.72
2024-03-15T01:01:11.816Z,100256.41
2024-03-15T01:01:33.746Z,100257.44
2024-03-15T01:01:56.556Z,100256.31
2024-03-15T01:02:18.420Z,100263.78
2024-03-15T01:02:40.214Z,100267.00
2024-03-15T01:03:02.066Z,100243.97
2024-03-15T01:03:24.345Z,100232.69
2024-03-15T01:03:47.761Z,100258.53
2024-03-15T01:04:09.756Z,100261.97
2024-03-15T01:04:31.549Z,100255.94
2024-03-15T01:04:53.412Z,100254.91
2024-03-15T01:05:15.300Z,100259.88
2024-03-15T01:05:37.148Z,100257.38
2024-03-15T01:06:00.286Z,100253.84
2024-03-15T01:06:22.826Z,100258.44
2024-03-15T01:06:44.742Z,100257.66
2024-03-15T01:07:07.151Z,100258.53
2024-03-15T01:07:30.195Z,100252.69
2024-03-15T01:07:51.982Z,100252.38
2024-03-15T01:08:14.749Z,100257.00
2024-03-15T01:09:35.514Z,100257.66
2024-03-15T01:09:57.319Z,100255.19
2024-03-15T01:10:20.057Z,100263.22
2024-03-15T01:10:42.522Z,100246.47
2024-03-15T01:11:04.369Z,100252.50
2024-03-15T01:11:26.250Z,100253.44
2024-03-15T01:11:48.021Z,100257.00
2024-03-15T01:12:09.804Z,100251.72
2024-03-15T01:12:32.609Z,100245.50
2024-03-15T01:12:54.538Z,100249.91
2024-03-15T01:13:16.393Z,100239.47
2024-03-15T01:13:38.193Z,100256.78
2024-03-15T01:14:00.445Z,100247.22
2024-03-15T01:14:22.588Z,100256.63
2024-03-15T01:14:46.287Z,100255.94
2024-03-15T01:15:08.746Z,100251.66
2024-03-15T01:15:30.657Z,100253.53
2024-03-15T01:15:52.650Z,100248.38
2024-03-15T01:16:14.447Z,100246.75
2024-03-15T01:16:37.293Z,100253.25
2024-03-15T01:16:59.095Z,100253.81
2024-03-15T01:17:20.838Z,100249.91
2024-03-15T01:17:43.819Z,100258.59
2024-03-15T01:18:05.844Z,100256.88
2024-03-15T01:18:28.803Z,100262.06
2024-03-15T01:18:50.751Z,100258.59
2024-03-15T01:19:12.573Z,100259.47
2024-03-15T01:19:34.789Z,100257.56
2024-03-15T01:19:58.619Z,100260.13
2024-03-15T01:20:21.568Z,100252.00
2024-03-15T01:20:43.561Z,100252.69
2024-03-15T01:21:06.149Z,100254.50
2024-03-15T01:21:28.128Z,100254.41
2024-03-15T01:21:49.930Z,100212.78
2024-03-15T01:22:12.780Z,100250.00
2024-03-15T01:22:34.544Z,100257.16
2024-03-15T01:22:57.000Z,100249.91
2024-03-15T01:23:19.962Z,100250.69
2024-03-15T01:23:41.756Z,100253.25
2024-03-15T01:24:03.647Z,100239.13
2024-03-15T01:24:26.484Z,100250.50
2024-03-15T01:24:48.364Z,100247.03
2024-03-15T01:25:10.318Z,100245.13
2024-03-15T01:25:32.109Z,100250.41
2024-03-15T01:25:53.918Z,100248.47
2024-03-15T01:26:16.602Z,100250.41
2024-03-15T01:26:39.372Z,100248.28
2024-03-15T01:27:01.609Z,100244.63
2024-03-15T01:27:23.427Z,100243.03
2024-03-15T01:27:45.252Z,100237.00
2024-03-15T01:28:07.038Z,100238.53
2024-03-15T01:28:31.265Z,100234.88
2024-03-15T01:28:53.026Z,100230.59
2024-03-15T01:29:14.811Z,100239.69
2024-03-15T01:29:36.573Z,100237.00
2024-03-15T01:29:58.394Z,100237.00
2024-03-15T01:30:20.967Z,100241.59
2024-03-15T01:30:45.028Z,100249.22
2024-03-15T01:31:07.448Z,100241.44
2024-03-15T01:31:29.281Z,100248.66
2024-03-15T01:31:51.048Z,100248.34
2024-03-15T01:32:12.864Z,100253.78
2024-03-15T01:32:36.710Z,100246.69
2024-03-15T01:32:58.546Z,100249.38
2024-03-15T01:33:20.442Z,100251.03
2024-03-15T01:33:42.502Z,100253.50
2024-03-15T01:34:04.335Z,100248.94
2024-03-15T01:34:26.516Z,100253.41
2024-03-15T01:34:50.692Z,100248.72
2024-03-15T01:35:12.494Z,100251.19
2024-03-15T01:35:34.518Z,100210.72
2024-03-15T01:35:57.920Z,100247.47
2024-03-15T01:36:19.812Z,100246.41
2024-03-15T01:36:41.633Z,100236.19
2024-03-15T01:37:04.472Z,100242.13
2024-03-15T01:37:26.261Z,100239.34
2024-03-15T01:37:48.059Z,100245.81
2024-03-15T01:38:09.996Z,100230.25
2024-03-15T01:38:33.026Z,100245.16
2024-03-15T01:38:55.793Z,100245.75
2024-03-15T01:39:17.678Z,100234.53
2024-03-15T01:39:39.611Z,100242.28
2024-03-15T01:40:01.431Z,100240.94
2024-03-15T01:40:23.241Z,100243.34
2024-03-15T01:40:46.594Z,100244.22
2024-03-15T01:41:08.369Z,100244.81
2024-03-15T01:41:30.176Z,100243.66
2024-03-15T01:41:52.645Z,100241.56
2024-03-15T01:42:15.518Z,100237.81
2024-03-15T01:42:37.352Z,100232.75
2024-03-15T01:42:59.206Z,100239.47
2024-03-15T01:43:20.979Z,100239.28
2024-03-15T01:43:48.024Z,100244.81
2024-03-15T01:44:10.882Z,100240.34
2024-03-15T01:44:40.389Z,100237.75
2024-03-15T01:45:02.159Z,100243.97
2024-03-15T01:45:24.224Z,100242.16
2024-03-15T01:45:46.072Z,100243.88
2024-03-15T01:46:08.843Z,100236.50
2024-03-15T01:46:30.597Z,100243.88
2024-03-15T01:46:53.108Z,100245.00
2024-03-15T01:47:16.781Z,100246.72
2024-03-15T01:47:38.597Z,100234.19
2024-03-15T01:48:00.421Z,100239.56
2024-03-15T01:48:23.973Z,100238.78
2024-03-15T01:48:46.212Z,100241.94
2024-03-15T01:49:08.088Z,100238.66
2024-03-15T01:49:29.888Z,100235.22
2024-03-15T01:49:54.595Z,100234.19
2024-03-15T01:50:16.499Z,100237.88
2024-03-15T01:50:39.375Z,100239.44
2024-03-15T01:51:01.138Z,100233.97
2024-03-15T01:51:23.764Z,100215.72
2024-03-15T01:51:45.742Z,100232.44
2024-03-15T01:52:07.513Z,100233.31
2024-03-15T01:52:33.800Z,100233.03
2024-03-15T01:52:55.594Z,100230.44
2024-03-15T01:53:18.776Z,100229.19
2024-03-15T01:53:40.698Z,100219.72
2024-03-15T01:54:02.463Z,100230.63
2024-03-15T01:54:24.300Z,100225.38
2024-03-15T01:54:46.360Z,100230.56
2024-03-15T01:55:09.332Z,100231.31
2024-03-15T01:55:33.163Z,100239.25
2024-03-15T01:55:56.028Z,100230.06
2024-03-15T01:56:18.361Z,100234.44
2024-03-15T01:56:40.202Z,100227.00
2024-03-15T01:57:02.955Z,100223.91
2024-03-15T01:57:24.852Z,100235.59
2024-03-15T01:57:46.735Z,100234.47
2024-03-15T01:58:09.218Z,100234.25
2024-03-15T01:58:31.269Z,100236.00
2024-03-15T01:58:54.017Z,100236.78
2024-03-15T01:59:15.978Z,100231.78
2024-03-15T01:59:37.822Z,100239.72
2024-03-15T01:59:59.608Z,100230.25
2024-03-15T02:00:21.652Z,100231.47
2024-03-15T02:00:43.740Z,100231.63
2024-03-15T02:01:07.504Z,100233.91
2024-03-15T02:01:29.397Z,100233.72
2024-03-15T02:01:51.154Z,100227.91
2024-03-15T02:02:14.354Z,100225.22
2024-03-15T02:02:37.132Z,100217.19
2024-03-15T02:02:59.842Z,100228.34
2024-03-15T02:03:21.620Z,100229.63
2024-03-15T02:03:47.662Z,100225.88
2024-03-15T02:04:09.582Z,100223.03
2024-03-15T02:04:31.387Z,100234.44
2024-03-15T02:04:55.210Z,100223.53
2024-03-15T02:05:18.320Z,100225.81
2024-03-15T02:05:40.697Z,100220.94
2024-03-15T02:06:02.518Z,100227.06
2024-03-15T02:06:24.303Z,100226.41
2024-03-15T02:06:46.171Z,100229.53
2024-03-15T02:07:09.419Z,100223.25
2024-03-15T02:07:31.232Z,100228.53
2024-03-15T02:07:53.906Z,100226.13
2024-03-15T02:08:18.501Z,100221.31
2024-03-15T02:08:40.276Z,100227.53
2024-03-15T02:09:02.417Z,100227.34
2024-03-15T02:09:26.022Z,100236.19
2024-03-15T02:09:47.842Z,100234.78
2024-03-15T02:10:13.161Z,100239.19
2024-03-15T02:10:34.958Z,100229.63
2024-03-15T02:10:56.721Z,100230.66
2024-03-15T02:11:19.511Z,100234.47
2024-03-15T02:11:41.283Z,100234.66
2024-03-15T02:12:03.137Z,100235.31
2024-03-15T02:12:24.964Z,100239.63
2024-03-15T02:12:46.845Z,100235.84
2024-03-15T02:13:08.757Z,100221.09
2024-03-15T02:13:31.512Z,100237.53
2024-03-15T02:13:53.736Z,100233.59
2024-03-15T02:14:15.529Z,100232.72
2024-03-15T02:14:37.285Z,100230.56
2024-03-15T02:14:59.044Z,100231.44
2024-03-15T02:15:22.132Z,100233.69
2024-03-15T02:15:44.066Z,100242.41
2024-03-15T02:16:06.473Z,100239.47
2024-03-15T02:16:28.227Z,100195.22
2024-03-15T02:16:50.075Z,100233.06
2024-03-15T02:17:13.669Z,100236.50
2024-03-15T02:17:37.469Z,100231.91
2024-03-15T02:17:59.280Z,100232.19
2024-03-15T02:18:21.261Z,100235.28
2024-03-15T02:18:44.335Z,100227.44
2024-03-15T02:19:06.211Z,100244.63
2024-03-15T02:19:29.012Z,100233.84
2024-03-15T02:19:50.776Z,100217.94
2024-03-15T02:20:13.195Z,100229.34
2024-03-15T02:20:35.012Z,100228.56
2024-03-15T02:20:56.963Z,100232.88
2024-03-15T02:21:18.948Z,100237.72
2024-03-15T02:21:41.835Z,100232.09
2024-03-15T02:22:04.000Z,100235.66
2024-03-15T02:22:25.778Z,100238.06
2024-03-15T02:22:48.830Z,100219.59
2024-03-15T02:23:10.806Z,100233.00
2024-03-15T02:23:33.599Z,100237.00
2024-03-15T02:23:55.727Z,100234.06
2024-03-15T02:24:17.516Z,100233.94
2024-03-15T02:24:39.319Z,100232.34
2024-03-15T02:25:01.185Z,100236.47
2024-03-15T02:25:23.960Z,100239.16
2024-03-15T02:25:45.738Z,100235.00
2024-03-15T02:26:08.373Z,100227.16
2024-03-15T02:26:30.123Z,100225.94
2024-03-15T02:26:52.308Z,100234.81
2024-03-15T02:27:15.643Z,100232.50
2024-03-15T02:27:37.694Z,100230.59
2024-03-15T02:27:59.513Z,100227.16
2024-03-15T02:28:23.574Z,100231.41
2024-03-15T02:28:45.383Z,100232.34
2024-03-15T02:29:09.289Z,100228.72
2024-03-15T02:29:31.159Z,100225.25
2024-03-15T02:29:53.382Z,100229.75
2024-03-15T02:30:15.218Z,100233.72
2024-03-15T02:30:37.068Z,100230.03
2024-03-15T02:30:59.824Z,100222.53
2024-03-15T02:31:22.399Z,100230.09
2024-03-15T02:31:47.746Z,100238.75
2024-03-15T02:32:09.647Z,100236.88
2024-03-15T02:32:31.447Z,100222.81
2024-03-15T02:32:54.263Z,100230.13
2024-03-15T02:33:16.450Z,100227.03
2024-03-15T02:33:39.374Z,100227.81
2024-03-15T02:34:01.365Z,100232.03
2024-03-15T02:34:23.136Z,100234.47
2024-03-15T02:34:45.870Z,100231.50
2024-03-15T02:35:15.517Z,100233.06
2024-03-15T02:35:46.505Z,100235.19
2024-03-15T02:36:11.184Z,100231.47
2024-03-15T02:36:33.052Z,100222.31
2024-03-15T02:36:57.726Z,100222.31
2024-03-15T02:37:19.503Z,100223.44
2024-03-15T02:37:41.292Z,100221.31
2024-03-15T02:38:03.060Z,100222.78
2024-03-15T02:38:27.894Z,100229.75
2024-03-15T02:38:50.817Z,100221.44
2024-03-15T02:39:17.301Z,100228.53
2024-03-15T02:39:39.274Z,100224.88
2024-03-15T02:40:01.076Z,100226.41
2024-03-15T02:40:24.325Z,100225.81
2024-03-15T02:40:46.076Z,100221.13
2024-03-15T02:41:10.207Z,100226.41
2024-03-15T02:41:32.877Z,100225.34
2024-03-15T02:41:54.676Z,100225.81
2024-03-15T02:42:16.450Z,100230.47
2024-03-15T02:42:39.257Z,100228.38
2024-03-15T02:43:01.207Z,100221.13
2024-03-15T02:43:23.004Z,100221.06
2024-03-15T02:43:45.676Z,100227.16
2024-03-15T02:44:08.369Z,100224.63
2024-03-15T02:44:31.339Z,100231.88
2024-03-15T02:44:53.113Z,100223.56
2024-03-15T02:45:15.323Z,100224.09
2024-03-15T02:45:38.179Z,100226.16
2024-03-15T02:46:00.367Z,100226.84
2024-03-15T02:46:22.209Z,100228.22
2024-03-15T02:46:43.995Z,100224.59
2024-03-15T02:47:06.422Z,100225.34
2024-03-15T02:47:29.212Z,100222.66
2024-03-15T02:47:51.118Z,100224.66
2024-03-15T02:48:13.190Z,100230.22
2024-03-15T02:48:35.775Z,100231.91
2024-03-15T02:48:58.909Z,100230.81
2024-03-15T02:49:22.186Z,100226.03
2024-03-15T02:49:43.947Z,100227.69
2024-03-15T02:50:06.789Z,100228.22
2024-03-15T02:50:28.577Z,100228.88
2024-03-15T02:50:50.308Z,100224.91
2024-03-15T02:51:12.134Z,100227.56
2024-03-15T02:51:34.918Z,100236.75
2024-03-15T02:51:57.531Z,100226.13
2024-03-15T02:52:19.350Z,100228.53
2024-03-15T02:52:41.098Z,100226.72
2024-03-15T02:53:03.003Z,100227.66
2024-03-15T02:53:25.987Z,100223.16
2024-03-15T02:53:48.813Z,100228.31
2024-03-15T02:54:13.009Z,100215.88
2024-03-15T02:54:36.431Z,100215.06
2024-03-15T02:54:58.285Z,100224.69
2024-03-15T02:55:20.042Z,100229.09
2024-03-15T02:55:42.760Z,100227.88
2024-03-15T02:56:04.770Z,100229.84
2024-03-15T02:56:28.120Z,100225.19
2024-03-15T02:56:49.864Z,100236.56
2024-03-15T02:57:11.646Z,100228.53
2024-03-15T02:57:33.529Z,100236.94
2024-03-15T02:57:56.757Z,100234.19
2024-03-15T02:58:19.857Z,100228.03
2024-03-15T02:58:42.131Z,100233.91
2024-03-15T02:59:03.940Z,100239.84
2024-03-15T02:59:26.685Z,100238.88
2024-03-15T02:59:49.441Z,100238.59
2024-03-15T03:00:11.764Z,100239.47
2024-03-15T03:00:33.713Z,100229.50
2024-03-15T03:00:55.710Z,100236.88
2024-03-15T03:01:17.580Z,100232.19
2024-03-15T03:01:39.406Z,100221.38
2024-03-15T03:02:02.150Z,100235.06
2024-03-15T03:02:24.277Z,100239.47
2024-03-15T03:02:46.205Z,100226.09
2024-03-15T03:03:11.887Z,100241.44
2024-03-15T03:03:33.733Z,100236.66
2024-03-15T03:03:56.266Z,100246.91
2024-03-15T03:04:19.375Z,100234.25
2024-03-15T03:04:41.643Z,100239.34
2024-03-15T03:05:03.478Z,100238.31
2024-03-15T03:05:25.276Z,100239.84
2024-03-15T03:05:47.149Z,100241.66
2024-03-15T03:06:09.005Z,100233.69
2024-03-15T03:06:32.283Z,100235.34
2024-03-15T03:06:54.139Z,100238.97
2024-03-15T03:07:15.930Z,100243.28
2024-03-15T03:07:37.685Z,100236.97
2024-03-15T03:07:59.678Z,100236.00
2024-03-15T03:08:21.507Z,100234.28
2024-03-15T03:08:44.845Z,100238.22
2024-03-15T03:09:08.182Z,100239.44
2024-03-15T03:09:30.144Z,100237.44
2024-03-15T03:09:52.060Z,100234.69
2024-03-15T03:10:14.896Z,100236.28
2024-03-15T03:10:36.680Z,100238.97
2024-03-15T03:10:58.540Z,100241.56
2024-03-15T03:11:20.512Z,100238.09
2024-03-15T03:11:42.264Z,100240.03
2024-03-15T03:12:05.150Z,100222.03
2024-03-15T03:12:27.283Z,100240.03
2024-03-15T03:12:49.163Z,100234.09
2024-03-15T03:13:11.071Z,100246.25
2024-03-15T03:13:33.059Z,100244.31
2024-03-15T03:13:59.505Z,100251.09
2024-03-15T03:14:21.293Z,100247.38
2024-03-15T03:14:43.134Z,100251.78
2024-03-15T03:15:05.289Z,100247.28
2024-03-15T03:15:27.084Z,100243.81
2024-03-15T03:15:49.923Z,100249.00
2024-03-15T03:16:11.742Z,100244.88
2024-03-15T03:16:34.944Z,100249.00
2024-03-15T03:16:56.745Z,100249.97
2024-03-15T03:17:18.511Z,100247.19
2024-03-15T03:17:41.288Z,100251.59
2024-03-15T03:18:03.241Z,100245.28
2024-03-15T03:18:25.108Z,100246.81
2024-03-15T03:18:46.989Z,100244.91
2024-03-15T03:19:09.104Z,100248.38
2024-03-15T03:19:32.148Z,100244.81
2024-03-15T03:19:53.930Z,100252.56
2024-03-15T03:20:20.387Z,100252.56
2024-03-15T03:20:43.267Z,100248.16
2024-03-15T03:21:05.615Z,100244.72
2024-03-15T03:21:28.396Z,100252.00
2024-03-15T03:21:51.448Z,100244.03
2024-03-15T03:22:13.317Z,100251.31
2024-03-15T03:22:35.081Z,100250.53
2024-03-15T03:22:57.908Z,100244.25
2024-03-15T03:23:19.702Z,100246.25
2024-03-15T03:23:42.480Z,100241.06
2024-03-15T03:24:04.653Z,100251.97
2024-03-15T03:24:26.823Z,100246.63
2024-03-15T03:24:48.997Z,100244.03
2024-03-15T03:25:11.053Z,100248.34
2024-03-15T03:25:34.532Z,100245.56
2024-03-15T03:25:56.362Z,100247.00
2024-03-15T03:26:18.172Z,100254.53
2024-03-15T03:26:39.918Z,100256.38
2024-03-15T03:27:02.667Z,100247.28
2024-03-15T03:27:24.727Z,100247.09
2024-03-15T03:27:46.662Z,100247.28
2024-03-15T03:28:08.485Z,100248.94
2024-03-15T03:28:30.213Z,100248.22
2024-03-15T03:28:52.001Z,100248.06
2024-03-15T03:29:14.746Z,100238.22
2024-03-15T03:29:37.277Z,100232.75
2024-03-15T03:29:59.023Z,100245.19
2024-03-15T03:30:20.955Z,100237.94
2024-03-15T03:30:42.875Z,100248.66
2024-03-15T03:31:04.647Z,100246.91
2024-03-15T03:31:27.360Z,100236.97
2024-03-15T03:31:49.092Z,100240.50
2024-03-15T03:32:13.117Z,100244.22
2024-03-15T03:32:36.494Z,100236.78
2024-03-15T03:32:58.795Z,100234.53
2024-03-15T03:33:20.777Z,100237.50
2024-03-15T03:33:43.594Z,100240.75
2024-03-15T03:34:05.422Z,100235.41
2024-03-15T03:34:27.166Z,100246.69
2024-03-15T03:34:48.928Z,100236.56
2024-03-15T03:35:10.724Z,100243.94
2024-03-15T03:35:32.505Z,100242.78
2024-03-15T03:35:56.175Z,100244.50
2024-03-15T03:36:19.061Z,100239.72
2024-03-15T03:36:41.110Z,100243.06
2024-03-15T03:37:02.869Z,100239.34
2024-03-15T03:37:24.697Z,100251.69
2024-03-15T03:37:46.448Z,100239.91
2024-03-15T03:38:09.282Z,100240.91
2024-03-15T03:38:31.040Z,100237.25
2024-03-15T03:38:53.116Z,100241.94
2024-03-15T03:39:15.071Z,100233.69
2024-03-15T03:39:37.120Z,100242.72
2024-03-15T03:39:59.174Z,100242.59
2024-03-15T03:40:25.798Z,100238.03
2024-03-15T03:40:48.029Z,100245.09
2024-03-15T03:41:10.026Z,100237.06
2024-03-15T03:41:31.904Z,100225.66
2024-03-15T03:41:55.904Z,100222.69
2024-03-15T03:42:21.123Z,100240.44
2024-03-15T03:42:44.648Z,100238.44
2024-03-15T03:43:06.607Z,100230.59
2024-03-15T03:43:28.357Z,100241.81
2024-03-15T03:43:51.834Z,100234.47
2024-03-15T03:44:17.242Z,100247.66
2024-03-15T03:44:39.135Z,100237.88
2024-03-15T03:45:00.916Z,100238.28
2024-03-15T03:45:24.069Z,100237.31
2024-03-15T03:45:48.263Z,100242.50
2024-03-15T03:46:11.045Z,100235.31
2024-03-15T03:46:34.891Z,100237.22
2024-03-15T03:46:56.688Z,100237.31
2024-03-15T03:47:18.482Z,100239.16
2024-03-15T03:47:40.240Z,100241.03
2024-03-15T03:48:04.306Z,100237.50
2024-03-15T03:48:26.205Z,100237.41
2024-03-15T03:48:48.175Z,100236.75
2024-03-15T03:49:09.987Z,100241.50
2024-03-15T03:49:31.736Z,100237.38
2024-03-15T03:49:54.554Z,100237.84
2024-03-15T03:50:16.402Z,100236.03
2024-03-15T03:50:38.172Z,100233.94
2024-03-15T03:51:01.632Z,100234.63
2024-03-15T03:51:23.430Z,100233.50
2024-03-15T03:51:45.697Z,100239.81
2024-03-15T03:52:08.649Z,100230.34
2024-03-15T03:52:30.478Z,100236.06
2024-03-15T03:52:53.664Z,100233.59
2024-03-15T03:53:15.535Z,100239.97
2024-03-15T03:53:37.312Z,100231.88
2024-03-15T03:53:59.070Z,100241.44
2024-03-15T03:54:21.835Z,100234.97
2024-03-15T03:54:44.288Z,100234.84
2024-03-15T03:55:06.547Z,100232.09
2024-03-15T03:55:28.723Z,100227.09
2024-03-15T03:55:50.491Z,100233.41
2024-03-15T03:56:15.406Z,100233.31
2024-03-15T03:56:38.759Z,100227.38
2024-03-15T03:57:02.729Z,100236.06
2024-03-15T03:57:38.537Z,100227.00
2024-03-15T03:58:06.183Z,100234.53
2024-03-15T03:58:28.211Z,100237.22
2024-03-15T03:58:51.099Z,100229.28
2024-03-15T03:59:12.889Z,100232.53
2024-03-15T03:59:34.644Z,100228.03
2024-03-15T03:59:56.430Z,100234.97
2024-03-15T04:00:18.843Z,100237.53
2024-03-15T04:00:40.943Z,100230.56
2024-03-15T04:01:04.712Z,100236.06
2024-03-15T04:01:26.602Z,100239.72
2024-03-15T04:01:48.575Z,100231.41
2024-03-15T04:02:10.348Z,100232.53
2024-03-15T04:02:32.543Z,100235.22
2024-03-15T04:02:55.772Z,100233.31
2024-03-15T04:03:17.761Z,100233.50
2024-03-15T04:03:39.582Z,100232.44
2024-03-15T04:04:01.404Z,100230.72
2024-03-15T04:04:23.157Z,100231.41
2024-03-15T04:04:47.128Z,100236.56
2024-03-15T04:05:11.542Z,100230.28
2024-03-15T04:05:33.303Z,100235.72
2024-03-15T04:05:56.039Z,100218.47
2024-03-15T04:06:17.961Z,100236.56
2024-03-15T04:06:39.830Z,100229.13
2024-03-15T04:07:01.835Z,100232.59
2024-03-15T04:07:28.781Z,100229.72
2024-03-15T04:07:51.496Z,100233.16
2024-03-15T04:08:13.363Z,100229.63
2024-03-15T04:08:35.869Z,100219.09
2024-03-15T04:08:58.534Z,100232.19
2024-03-15T04:09:20.408Z,100228.56
2024-03-15T04:09:43.256Z,100230.28
2024-03-15T04:10:05.104Z,100226.66
2024-03-15T04:10:27.593Z,100227.41
2024-03-15T04:10:50.409Z,100226.66
2024-03-15T04:11:12.388Z,100218.91
2024-03-15T04:11:35.155Z,100229.63
2024-03-15T04:11:57.201Z,100227.91
2024-03-15T04:12:19.070Z,100225.22
2024-03-15T04:12:41.352Z,100224.94
2024-03-15T04:13:03.321Z,100227.53
2024-03-15T04:13:26.049Z,100224.56
2024-03-15T04:13:48.206Z,100218.72
2024-03-15T04:14:10.092Z,100226.75
2024-03-15T04:14:43.249Z,100232.59
2024-03-15T04:15:20.878Z,100227.53
2024-03-15T04:15:54.828Z,100220.38
2024-03-15T04:16:16.765Z,100228.28
2024-03-15T04:16:38.692Z,100229.94
2024-03-15T04:17:00.472Z,100228.97
2024-03-15T04:17:24.308Z,100231.81
2024-03-15T04:17:47.493Z,100230.22
2024-03-15T04:18:09.376Z,100224.94